KSJC/SJC METAR and TAF weather

Enter ICAO airport designator
Station Type Date Time Source
KSJC METAR 2021/05/14 03:53 UTC NOAA

KSJC 140353Z 31008KT 10SM FEW008 13/09 A3000 RMK AO2 SLP157 T01330094


Station Type Date Time Source
KSJC Decoded METAR 2021/05/14 03:53 UTC NOAA

SAN JOSE INTERNATIONAL AIRPORT, CA, United States (KSJC) 37-22N 121-55W 25M
May 13, 2021 - 11:53 PM EDT / 2021.05.14 0353 UTC
Wind: from the NW (310 degrees) at 9 MPH (8 KT):0
Visibility: 10 mile(s):0
Sky conditions: mostly clear
Temperature: 55.9 F (13.3 C)
Dew Point: 48.9 F (9.4 C)
Relative Humidity: 77%
Pressure (altimeter): 30 in. Hg (1015 hPa)
ob: KSJC 140353Z 31008KT 10SM FEW008 13/09 A3000 RMK AO2 SLP157 T01330094
cycle: 4

Station Type Date Time Source
KSJC TAF 2021/05/13 18:42 UTC NOAA

TAF KSJC 131740Z 1318/1418 VRB05KT P6SM FEW014
FM132100 33010KT P6SM SCT200
FM140500 32007KT P6SM SCT014
FM140700 VRB05KT P6SM BKN012
FM141700 20006KT P6SM SCT012

Example: see airport list